Big Bear Station Historical Data
Daily Summary for January 7, 2017 Units:  English    Metric   Both
« Previous Day
Next Day »
Daily Weekly Monthly Yearly Custom
  High: Low: Average:
Temperature: 44.4 °F 24.6 °F 39.3 °F
Dew Point: 39.6 °F 9.6 °F 31.6 °F
Humidity: 92 % 36 % 75 %
Wind Speed: 5.8 mph 0.0 mph 2.7 mph
Wind Gust: -999.0 mph - -
Wind:- - West
Pressure: 23.66 in 23.51 in -
Precipitation: 0.04 in    
Historical Graphs
 
 
Tabular Data for January 7, 2017
Time Temperature Dew Point Pressure Wind Wind Speed Wind Gust Humidity Rainfall Rate (Hourly)
00:14 25.3 °F 21.4 °F 23.51 in Calm   -999.0 mph 85 % 0 in
00:30 24.6 °F 21.3 °F 23.51 in Calm   -999.0 mph 87 % 0 in
00:45 28.4 °F 15.9 °F 23.51 in WNW 4.7 mph -999.0 mph 59 % 0 in
01:00 32.0 °F 13.5 °F 23.52 in SW 3.2 mph -999.0 mph 46 % 0 in
01:15 32.7 °F 12.1 °F 23.52 in NNW 1.7 mph -999.0 mph 42 % 0 in
01:30 33.8 °F 9.6 °F 23.52 in WNW 5.3 mph -999.0 mph 36 % 0 in
01:46 34.5 °F 10.3 °F 23.52 in NW 2.2 mph -999.0 mph 36 % 0 in
02:01 35.1 °F 12.6 °F 23.52 in West 2.2 mph -999.0 mph 39 % 0 in
02:16 35.8 °F 13.2 °F 23.52 in NNW 2.2 mph -999.0 mph 39 % 0 in
02:31 36.0 °F 12.8 °F 23.53 in NW 5.8 mph -999.0 mph 38 % 0 in
02:47 36.1 °F 12.9 °F 23.54 in NNW 3.2 mph -999.0 mph 38 % 0 in
03:02 36.0 °F 12.8 °F 23.54 in WNW 2.2 mph -999.0 mph 38 % 0 in
03:17 35.4 °F 15.1 °F 23.54 in NW 3.2 mph -999.0 mph 43 % 0 in
03:33 35.1 °F 15.9 °F 23.53 in SW 1.7 mph -999.0 mph 45 % 0 in
03:49 34.9 °F 16.2 °F 23.54 in NW 1.1 mph -999.0 mph 46 % 0 in
04:04 35.1 °F 16.4 °F 23.53 in Calm   -999.0 mph 46 % 0 in
04:19 35.1 °F 18.3 °F 23.52 in Calm   -999.0 mph 50 % 0 in
04:34 35.6 °F 23.5 °F 23.51 in NW 2.7 mph -999.0 mph 61 % 0 in
04:50 35.6 °F 21.4 °F 23.52 in West 2.2 mph -999.0 mph 56 % 0 in
05:05 35.8 °F 24.8 °F 23.53 in WSW 1.7 mph -999.0 mph 64 % 0 in
05:20 36.5 °F 26.6 °F 23.54 in NNW 1.7 mph -999.0 mph 67 % 0 in
05:36 36.3 °F 26.4 °F 23.55 in South 1.1 mph -999.0 mph 67 % 0 in
05:51 35.8 °F 28.0 °F 23.55 in Calm   -999.0 mph 73 % 0 in
06:06 35.8 °F 28.7 °F 23.54 in NW 2.7 mph -999.0 mph 75 % 0 in
06:21 35.6 °F 30.6 °F 23.55 in North 2.2 mph -999.0 mph 82 % 0 in
06:36 36.1 °F 31.1 °F 23.56 in Calm   -999.0 mph 82 % 0 in
06:52 36.1 °F 32.9 °F 23.56 in NNW 2.2 mph -999.0 mph 88 % 0 in
07:07 37.0 °F 34.3 °F 23.57 in WNW 1.7 mph -999.0 mph 90 % 0 in
07:22 37.4 °F 35.0 °F 23.57 in NNE 2.7 mph -999.0 mph 91 % 0 in
07:37 37.8 °F 35.4 °F 23.57 in NW 3.7 mph -999.0 mph 91 % 0 in
07:52 37.9 °F 35.8 °F 23.58 in NNW 4.2 mph -999.0 mph 92 % 0 in
08:08 38.7 °F 36.3 °F 23.59 in NW 3.2 mph -999.0 mph 91 % 0 in
08:23 40.1 °F 36.8 °F 23.59 in West 3.2 mph -999.0 mph 88 % 0 in
08:38 39.9 °F 36.9 °F 23.60 in SSE 5.8 mph -999.0 mph 89 % 0 in
08:54 40.3 °F 37.0 °F 23.61 in South 3.2 mph -999.0 mph 88 % 0 in
09:09 40.5 °F 37.2 °F 23.61 in SSW 3.2 mph -999.0 mph 88 % 0 in
09:25 41.0 °F 37.7 °F 23.61 in NW 3.2 mph -999.0 mph 88 % 0 in
09:40 41.5 °F 38.2 °F 23.62 in South 1.7 mph -999.0 mph 88 % 0 in
09:55 42.4 °F 38.2 °F 23.61 in WNW 1.7 mph -999.0 mph 85 % 0 in
10:11 43.9 °F 39.1 °F 23.61 in West 3.2 mph -999.0 mph 83 % 0 in
10:26 43.2 °F 39.0 °F 23.61 in WNW 2.2 mph -999.0 mph 85 % 0 in
10:41 43.7 °F 38.9 °F 23.61 in NNW 3.2 mph -999.0 mph 83 % 0 in
10:57 43.7 °F 38.9 °F 23.61 in ESE 3.2 mph -999.0 mph 83 % 0 in
11:12 44.1 °F 39.6 °F 23.61 in NNW 3.7 mph -999.0 mph 84 % 0 in
11:27 44.4 °F 39.6 °F 23.61 in NNW 2.2 mph -999.0 mph 83 % 0 in
11:43 44.1 °F 39.0 °F 23.60 in West 4.2 mph -999.0 mph 82 % 0 in
11:58 43.9 °F 38.8 °F 23.59 in East 5.3 mph -999.0 mph 82 % 0 in
12:13 43.9 °F 38.4 °F 23.59 in North 4.2 mph -999.0 mph 81 % 0 in
12:28 44.2 °F 38.7 °F 23.58 in SW 2.2 mph -999.0 mph 81 % 0 in
12:44 44.1 °F 39.0 °F 23.58 in NW 5.8 mph -999.0 mph 82 % 0 in
12:59 43.7 °F 38.3 °F 23.57 in ESE 2.2 mph -999.0 mph 81 % 0 in
13:14 43.2 °F 38.4 °F 23.57 in NW 3.7 mph -999.0 mph 83 % 0 in
13:29 43.7 °F 38.6 °F 23.57 in NNW 4.2 mph -999.0 mph 82 % 0 in
13:44 43.3 °F 38.5 °F 23.57 in West 4.7 mph -999.0 mph 83 % 0 in
14:00 43.7 °F 38.9 °F 23.58 in SSE 1.7 mph -999.0 mph 83 % 0 in
14:15 43.7 °F 38.9 °F 23.58 in NW 4.7 mph -999.0 mph 83 % 0 in
14:30 43.5 °F 38.7 °F 23.58 in WSW 2.7 mph -999.0 mph 83 % 0 in
14:46 43.2 °F 38.1 °F 23.58 in WNW 4.2 mph -999.0 mph 82 % 0 in
15:01 41.9 °F 37.7 °F 23.59 in NE 2.2 mph -999.0 mph 85 % 0 in
15:17 41.7 °F 37.5 °F 23.59 in NW 2.2 mph -999.0 mph 85 % 0 in
15:32 41.5 °F 37.6 °F 23.60 in WNW 4.2 mph -999.0 mph 86 % 0 in
15:48 41.4 °F 37.5 °F 23.60 in NW 2.7 mph -999.0 mph 86 % 0 in
16:03 41.4 °F 37.5 °F 23.60 in NW 2.7 mph -999.0 mph 86 % 0 in
16:18 41.2 °F 37.3 °F 23.60 in SW 3.2 mph -999.0 mph 86 % 0 in
16:33 41.0 °F 37.1 °F 23.60 in ENE 1.7 mph -999.0 mph 86 % 0 in
16:48 40.6 °F 36.7 °F 23.60 in NW 4.7 mph -999.0 mph 86 % 0 in
17:04 40.5 °F 36.6 °F 23.60 in WSW 1.7 mph -999.0 mph 86 % 0 in
17:19 40.5 °F 36.6 °F 23.61 in NW 2.7 mph -999.0 mph 86 % 0 in
17:34 39.9 °F 36.1 °F 23.61 in WNW 4.7 mph -999.0 mph 86 % 0 in
17:49 40.1 °F 36.5 °F 23.61 in NE 2.2 mph -999.0 mph 87 % 0 in
18:05 40.1 °F 36.3 °F 23.61 in NW 1.7 mph -999.0 mph 86 % 0 in
18:20 40.3 °F 36.2 °F 23.61 in WNW 3.7 mph -999.0 mph 85 % 0 in
18:35 40.5 °F 35.4 °F 23.61 in NNW 4.2 mph -999.0 mph 82 % 0 in
18:50 40.5 °F 35.4 °F 23.61 in WSW 1.7 mph -999.0 mph 82 % 0 in
19:06 40.3 °F 34.9 °F 23.62 in SW 1.7 mph -999.0 mph 81 % 0 in
19:21 40.5 °F 34.8 °F 23.63 in North 2.7 mph -999.0 mph 80 % 0 in
19:36 40.3 °F 35.2 °F 23.63 in NW 1.1 mph -999.0 mph 82 % 0 in
19:51 40.3 °F 35.2 °F 23.63 in WNW 3.7 mph -999.0 mph 82 % 0 in
20:06 39.7 °F 35.3 °F 23.63 in Calm   -999.0 mph 84 % 0 in
20:22 39.6 °F 34.6 °F 23.64 in SW 2.7 mph -999.0 mph 82 % 0 in
20:37 39.7 °F 35.0 °F 23.64 in West 1.7 mph -999.0 mph 83 % 0 in
20:52 39.9 °F 34.9 °F 23.64 in NW 2.7 mph -999.0 mph 82 % 0 in
21:07 40.3 °F 35.2 °F 23.64 in NW 3.7 mph -999.0 mph 82 % 0 in
21:23 40.5 °F 34.8 °F 23.65 in NW 2.2 mph -999.0 mph 80 % 0 in
21:38 40.6 °F 34.0 °F 23.66 in NE 1.7 mph -999.0 mph 77 % 0 in
21:53 40.5 °F 33.2 °F 23.66 in NW 1.7 mph -999.0 mph 75 % 0 in
22:08 41.2 °F 33.2 °F 23.66 in West 4.2 mph -999.0 mph 73 % 0 in
22:24 40.6 °F 33.3 °F 23.66 in West 1.7 mph -999.0 mph 75 % 0 in
22:39 40.5 °F 33.2 °F 23.66 in NW 3.7 mph -999.0 mph 75 % 0 in
22:54 40.6 °F 33.0 °F 23.66 in West 2.7 mph -999.0 mph 74 % 0 in
23:09 41.0 °F 33.0 °F 23.66 in WNW 1.1 mph -999.0 mph 73 % 0 in
23:24 41.5 °F 32.8 °F 23.66 in Calm   -999.0 mph 71 % 0 in
23:40 41.5 °F 33.1 °F 23.66 in West 2.2 mph -999.0 mph 72 % 0 in
23:56 41.4 °F 33.1 °F 23.65 in West 1.7 mph -999.0 mph 72 % 0 in
Big Bear CA Weather
Compliments of Weather Underground - 1.5 mb